sensor_id;sensor_type;location;lat;lon;timestamp;P1;durP1;ratioP1;P2;durP2;ratioP2
28587;SDS011;15787;49.662;10.162;2022-08-19T00:04:19;21.90;;;14.73;;
28587;SDS011;15787;49.662;10.162;2022-08-19T00:06:49;20.15;;;14.95;;
28587;SDS011;15787;49.662;10.162;2022-08-19T00:09:20;22.13;;;16.55;;
28587;SDS011;15787;49.662;10.162;2022-08-19T00:11:51;21.13;;;15.10;;
28587;SDS011;15787;49.662;10.162;2022-08-19T00:16:53;21.48;;;14.77;;
28587;SDS011;15787;49.662;10.162;2022-08-19T00:19:22;23.83;;;16.00;;
28587;SDS011;15787;49.662;10.162;2022-08-19T00:21:51;23.45;;;14.35;;
28587;SDS011;15787;49.662;10.162;2022-08-19T00:24:20;20.95;;;15.45;;
28587;SDS011;15787;49.662;10.162;2022-08-19T00:26:49;20.27;;;15.00;;
28587;SDS011;15787;49.662;10.162;2022-08-19T00:29:19;23.58;;;15.13;;
28587;SDS011;15787;49.662;10.162;2022-08-19T00:31:48;20.65;;;15.20;;
28587;SDS011;15787;49.662;10.162;2022-08-19T00:34:19;24.73;;;16.38;;
28587;SDS011;15787;49.662;10.162;2022-08-19T00:36:48;23.90;;;15.20;;
28587;SDS011;15787;49.662;10.162;2022-08-19T00:39:16;23.48;;;15.15;;
28587;SDS011;15787;49.662;10.162;2022-08-19T00:41:45;23.45;;;15.52;;
28587;SDS011;15787;49.662;10.162;2022-08-19T00:44:17;23.63;;;15.80;;
28587;SDS011;15787;49.662;10.162;2022-08-19T00:46:53;23.80;;;16.60;;
28587;SDS011;15787;49.662;10.162;2022-08-19T00:49:26;21.50;;;15.10;;
28587;SDS011;15787;49.662;10.162;2022-08-19T00:51:59;25.88;;;16.88;;
28587;SDS011;15787;49.662;10.162;2022-08-19T00:54:29;26.13;;;16.45;;
28587;SDS011;15787;49.662;10.162;2022-08-19T00:56:59;26.35;;;16.27;;
28587;SDS011;15787;49.662;10.162;2022-08-19T00:59:33;23.30;;;15.05;;
28587;SDS011;15787;49.662;10.162;2022-08-19T01:02:24;25.00;;;15.65;;
28587;SDS011;15787;49.662;10.162;2022-08-19T01:04:53;21.17;;;15.07;;
28587;SDS011;15787;49.662;10.162;2022-08-19T01:07:21;23.52;;;15.60;;
28587;SDS011;15787;49.662;10.162;2022-08-19T01:09:49;23.00;;;17.13;;
28587;SDS011;15787;49.662;10.162;2022-08-19T01:12:18;22.27;;;14.90;;
28587;SDS011;15787;49.662;10.162;2022-08-19T01:14:47;22.35;;;15.70;;
28587;SDS011;15787;49.662;10.162;2022-08-19T01:17:15;24.58;;;16.45;;
28587;SDS011;15787;49.662;10.162;2022-08-19T01:19:44;24.00;;;16.48;;
28587;SDS011;15787;49.662;10.162;2022-08-19T01:22:28;23.90;;;16.25;;
28587;SDS011;15787;49.662;10.162;2022-08-19T01:25:00;26.25;;;16.08;;
28587;SDS011;15787;49.662;10.162;2022-08-19T01:27:36;26.08;;;16.20;;
28587;SDS011;15787;49.662;10.162;2022-08-19T01:30:10;22.42;;;15.82;;
28587;SDS011;15787;49.662;10.162;2022-08-19T01:32:40;26.02;;;16.95;;
28587;SDS011;15787;49.662;10.162;2022-08-19T01:35:10;23.50;;;15.63;;
28587;SDS011;15787;49.662;10.162;2022-08-19T01:37:45;23.38;;;16.35;;
28587;SDS011;15787;49.662;10.162;2022-08-19T01:40:14;24.85;;;16.63;;
28587;SDS011;15787;49.662;10.162;2022-08-19T01:42:42;22.98;;;15.80;;
28587;SDS011;15787;49.662;10.162;2022-08-19T01:45:10;23.35;;;16.10;;
28587;SDS011;15787;49.662;10.162;2022-08-19T01:47:39;23.70;;;15.73;;
28587;SDS011;15787;49.662;10.162;2022-08-19T01:50:07;22.52;;;15.77;;
28587;SDS011;15787;49.662;10.162;2022-08-19T01:52:37;24.40;;;16.23;;
28587;SDS011;15787;49.662;10.162;2022-08-19T01:55:09;23.63;;;16.13;;
28587;SDS011;15787;49.662;10.162;2022-08-19T01:57:39;23.10;;;15.30;;
28587;SDS011;15787;49.662;10.162;2022-08-19T02:00:09;24.42;;;17.17;;
28587;SDS011;15787;49.662;10.162;2022-08-19T02:02:42;24.80;;;17.42;;
28587;SDS011;15787;49.662;10.162;2022-08-19T02:05:14;24.25;;;16.23;;
28587;SDS011;15787;49.662;10.162;2022-08-19T02:07:46;22.55;;;15.95;;
28587;SDS011;15787;49.662;10.162;2022-08-19T02:10:17;23.40;;;16.92;;
28587;SDS011;15787;49.662;10.162;2022-08-19T02:12:48;25.02;;;15.60;;
28587;SDS011;15787;49.662;10.162;2022-08-19T02:15:17;23.55;;;15.13;;
28587;SDS011;15787;49.662;10.162;2022-08-19T02:17:46;23.02;;;16.00;;
28587;SDS011;15787;49.662;10.162;2022-08-19T02:20:15;26.85;;;17.40;;
28587;SDS011;15787;49.662;10.162;2022-08-19T02:22:43;28.23;;;17.42;;
28587;SDS011;15787;49.662;10.162;2022-08-19T02:25:13;25.80;;;18.27;;
28587;SDS011;15787;49.662;10.162;2022-08-19T02:27:43;27.10;;;17.42;;
28587;SDS011;15787;49.662;10.162;2022-08-19T02:30:12;27.95;;;18.45;;
28587;SDS011;15787;49.662;10.162;2022-08-19T02:32:42;26.58;;;17.55;;
28587;SDS011;15787;49.662;10.162;2022-08-19T02:35:11;21.55;;;16.60;;
28587;SDS011;15787;49.662;10.162;2022-08-19T02:37:40;24.58;;;16.55;;
28587;SDS011;15787;49.662;10.162;2022-08-19T02:40:26;25.83;;;17.15;;
28587;SDS011;15787;49.662;10.162;2022-08-19T02:42:56;23.05;;;16.52;;
28587;SDS011;15787;49.662;10.162;2022-08-19T02:45:24;24.80;;;17.38;;
28587;SDS011;15787;49.662;10.162;2022-08-19T02:47:52;25.15;;;17.02;;
28587;SDS011;15787;49.662;10.162;2022-08-19T02:50:21;25.10;;;16.85;;
28587;SDS011;15787;49.662;10.162;2022-08-19T02:52:50;25.23;;;17.63;;
28587;SDS011;15787;49.662;10.162;2022-08-19T02:55:18;27.33;;;17.60;;
28587;SDS011;15787;49.662;10.162;2022-08-19T02:57:47;25.73;;;18.75;;
28587;SDS011;15787;49.662;10.162;2022-08-19T03:00:17;26.08;;;17.13;;
28587;SDS011;15787;49.662;10.162;2022-08-19T03:02:48;25.60;;;17.83;;
28587;SDS011;15787;49.662;10.162;2022-08-19T03:05:16;26.73;;;17.50;;
28587;SDS011;15787;49.662;10.162;2022-08-19T03:08:04;28.98;;;17.52;;
28587;SDS011;15787;49.662;10.162;2022-08-19T03:10:33;29.45;;;17.67;;
28587;SDS011;15787;49.662;10.162;2022-08-19T03:13:06;25.55;;;18.13;;
28587;SDS011;15787;49.662;10.162;2022-08-19T03:15:37;25.27;;;16.83;;
28587;SDS011;15787;49.662;10.162;2022-08-19T03:18:07;28.20;;;16.60;;
28587;SDS011;15787;49.662;10.162;2022-08-19T03:20:39;26.63;;;18.10;;
28587;SDS011;15787;49.662;10.162;2022-08-19T03:25:37;27.98;;;17.73;;
28587;SDS011;15787;49.662;10.162;2022-08-19T03:28:06;26.73;;;18.75;;
28587;SDS011;15787;49.662;10.162;2022-08-19T03:30:34;27.35;;;18.30;;
28587;SDS011;15787;49.662;10.162;2022-08-19T03:33:08;26.70;;;17.63;;
28587;SDS011;15787;49.662;10.162;2022-08-19T03:35:43;26.50;;;18.20;;
28587;SDS011;15787;49.662;10.162;2022-08-19T03:38:11;23.70;;;16.40;;
28587;SDS011;15787;49.662;10.162;2022-08-19T03:40:39;24.20;;;17.27;;
28587;SDS011;15787;49.662;10.162;2022-08-19T03:43:07;26.20;;;17.33;;
28587;SDS011;15787;49.662;10.162;2022-08-19T03:45:35;23.42;;;17.27;;
28587;SDS011;15787;49.662;10.162;2022-08-19T03:48:03;23.90;;;17.33;;
28587;SDS011;15787;49.662;10.162;2022-08-19T03:50:32;26.05;;;17.80;;
28587;SDS011;15787;49.662;10.162;2022-08-19T03:53:00;23.83;;;15.70;;
28587;SDS011;15787;49.662;10.162;2022-08-19T03:55:28;23.73;;;15.88;;
28587;SDS011;15787;49.662;10.162;2022-08-19T03:57:56;22.83;;;16.33;;
28587;SDS011;15787;49.662;10.162;2022-08-19T04:00:24;24.50;;;16.50;;
28587;SDS011;15787;49.662;10.162;2022-08-19T04:02:52;26.48;;;16.70;;
28587;SDS011;15787;49.662;10.162;2022-08-19T04:05:26;25.42;;;17.75;;
28587;SDS011;15787;49.662;10.162;2022-08-19T04:07:56;26.80;;;16.95;;
28587;SDS011;15787;49.662;10.162;2022-08-19T04:10:25;28.25;;;16.08;;
28587;SDS011;15787;49.662;10.162;2022-08-19T04:12:56;23.05;;;15.23;;
28587;SDS011;15787;49.662;10.162;2022-08-19T04:15:24;29.10;;;17.70;;
28587;SDS011;15787;49.662;10.162;2022-08-19T04:17:52;25.05;;;17.27;;
28587;SDS011;15787;49.662;10.162;2022-08-19T04:20:21;24.08;;;16.30;;
28587;SDS011;15787;49.662;10.162;2022-08-19T04:22:49;24.35;;;16.73;;
28587;SDS011;15787;49.662;10.162;2022-08-19T04:25:18;24.17;;;17.27;;
28587;SDS011;15787;49.662;10.162;2022-08-19T04:27:46;23.65;;;16.90;;
28587;SDS011;15787;49.662;10.162;2022-08-19T04:30:14;24.85;;;16.40;;
28587;SDS011;15787;49.662;10.162;2022-08-19T04:32:44;23.42;;;15.43;;
28587;SDS011;15787;49.662;10.162;2022-08-19T04:35:12;22.23;;;16.13;;
28587;SDS011;15787;49.662;10.162;2022-08-19T04:37:44;25.55;;;17.02;;
28587;SDS011;15787;49.662;10.162;2022-08-19T04:40:12;23.60;;;16.40;;
28587;SDS011;15787;49.662;10.162;2022-08-19T04:42:59;24.17;;;16.75;;
28587;SDS011;15787;49.662;10.162;2022-08-19T04:45:28;23.50;;;16.27;;
28587;SDS011;15787;49.662;10.162;2022-08-19T04:48:09;24.85;;;17.10;;
28587;SDS011;15787;49.662;10.162;2022-08-19T04:50:53;21.88;;;15.77;;
28587;SDS011;15787;49.662;10.162;2022-08-19T04:53:24;26.08;;;17.58;;
28587;SDS011;15787;49.662;10.162;2022-08-19T04:56:04;23.17;;;15.98;;
28587;SDS011;15787;49.662;10.162;2022-08-19T04:58:35;24.95;;;16.17;;
28587;SDS011;15787;49.662;10.162;2022-08-19T05:01:04;23.17;;;16.85;;
28587;SDS011;15787;49.662;10.162;2022-08-19T05:03:33;24.00;;;15.85;;
28587;SDS011;15787;49.662;10.162;2022-08-19T05:06:03;23.92;;;16.58;;
28587;SDS011;15787;49.662;10.162;2022-08-19T05:08:34;23.20;;;16.77;;
28587;SDS011;15787;49.662;10.162;2022-08-19T05:11:08;23.08;;;15.55;;
28587;SDS011;15787;49.662;10.162;2022-08-19T05:13:41;21.42;;;15.55;;
28587;SDS011;15787;49.662;10.162;2022-08-19T05:16:10;24.67;;;16.35;;
28587;SDS011;15787;49.662;10.162;2022-08-19T05:18:38;20.67;;;14.70;;
28587;SDS011;15787;49.662;10.162;2022-08-19T05:21:25;22.42;;;15.32;;
28587;SDS011;15787;49.662;10.162;2022-08-19T05:24:12;19.30;;;13.93;;
28587;SDS011;15787;49.662;10.162;2022-08-19T05:26:41;25.67;;;15.82;;
28587;SDS011;15787;49.662;10.162;2022-08-19T05:29:15;23.55;;;15.73;;
28587;SDS011;15787;49.662;10.162;2022-08-19T05:31:47;23.85;;;15.77;;
28587;SDS011;15787;49.662;10.162;2022-08-19T05:34:17;22.70;;;15.05;;
28587;SDS011;15787;49.662;10.162;2022-08-19T05:36:48;22.45;;;15.10;;
28587;SDS011;15787;49.662;10.162;2022-08-19T05:39:19;22.60;;;14.95;;
28587;SDS011;15787;49.662;10.162;2022-08-19T05:41:49;22.27;;;14.85;;
28587;SDS011;15787;49.662;10.162;2022-08-19T05:44:25;22.67;;;15.52;;
28587;SDS011;15787;49.662;10.162;2022-08-19T05:46:57;23.20;;;16.23;;
28587;SDS011;15787;49.662;10.162;2022-08-19T05:49:26;21.25;;;14.10;;
28587;SDS011;15787;49.662;10.162;2022-08-19T05:51:55;21.67;;;14.85;;
28587;SDS011;15787;49.662;10.162;2022-08-19T05:54:23;20.08;;;14.25;;
28587;SDS011;15787;49.662;10.162;2022-08-19T05:56:52;21.33;;;14.50;;
28587;SDS011;15787;49.662;10.162;2022-08-19T05:59:21;19.63;;;15.10;;
28587;SDS011;15787;49.662;10.162;2022-08-19T06:01:52;22.50;;;14.85;;
28587;SDS011;15787;49.662;10.162;2022-08-19T06:04:22;20.63;;;14.95;;
28587;SDS011;15787;49.662;10.162;2022-08-19T06:06:52;20.75;;;14.52;;
28587;SDS011;15787;49.662;10.162;2022-08-19T06:09:21;19.20;;;13.63;;
28587;SDS011;15787;49.662;10.162;2022-08-19T06:11:51;20.07;;;13.60;;
28587;SDS011;15787;49.662;10.162;2022-08-19T06:14:22;21.70;;;14.07;;
28587;SDS011;15787;49.662;10.162;2022-08-19T06:16:54;19.63;;;14.48;;
28587;SDS011;15787;49.662;10.162;2022-08-19T06:19:23;20.50;;;15.00;;
28587;SDS011;15787;49.662;10.162;2022-08-19T06:21:51;20.58;;;14.23;;
28587;SDS011;15787;49.662;10.162;2022-08-19T06:24:21;23.27;;;15.98;;
28587;SDS011;15787;49.662;10.162;2022-08-19T06:26:51;21.48;;;13.68;;
28587;SDS011;15787;49.662;10.162;2022-08-19T06:29:27;17.67;;;12.90;;
28587;SDS011;15787;49.662;10.162;2022-08-19T06:31:58;19.92;;;14.07;;
28587;SDS011;15787;49.662;10.162;2022-08-19T06:34:28;20.08;;;13.82;;
28587;SDS011;15787;49.662;10.162;2022-08-19T06:36:58;18.52;;;13.63;;
28587;SDS011;15787;49.662;10.162;2022-08-19T06:39:28;19.70;;;13.80;;
28587;SDS011;15787;49.662;10.162;2022-08-19T06:41:58;17.88;;;13.27;;
28587;SDS011;15787;49.662;10.162;2022-08-19T06:44:30;18.88;;;13.10;;
28587;SDS011;15787;49.662;10.162;2022-08-19T06:47:10;21.80;;;15.68;;
28587;SDS011;15787;49.662;10.162;2022-08-19T06:49:50;17.05;;;12.27;;
28587;SDS011;15787;49.662;10.162;2022-08-19T06:52:26;18.52;;;12.52;;
28587;SDS011;15787;49.662;10.162;2022-08-19T06:54:54;18.85;;;13.48;;
28587;SDS011;15787;49.662;10.162;2022-08-19T06:57:25;18.08;;;12.27;;
28587;SDS011;15787;49.662;10.162;2022-08-19T06:59:54;21.00;;;13.37;;
28587;SDS011;15787;49.662;10.162;2022-08-19T07:02:24;17.02;;;12.60;;
28587;SDS011;15787;49.662;10.162;2022-08-19T07:04:53;16.90;;;12.30;;
28587;SDS011;15787;49.662;10.162;2022-08-19T07:07:24;17.10;;;13.05;;
28587;SDS011;15787;49.662;10.162;2022-08-19T07:09:52;15.65;;;12.27;;
28587;SDS011;15787;49.662;10.162;2022-08-19T07:12:26;16.45;;;11.82;;
28587;SDS011;15787;49.662;10.162;2022-08-19T07:14:56;19.55;;;13.43;;
28587;SDS011;15787;49.662;10.162;2022-08-19T07:17:26;17.38;;;11.85;;
28587;SDS011;15787;49.662;10.162;2022-08-19T07:19:56;18.58;;;12.48;;
28587;SDS011;15787;49.662;10.162;2022-08-19T07:22:31;17.58;;;13.15;;
28587;SDS011;15787;49.662;10.162;2022-08-19T07:24:59;18.33;;;12.93;;
28587;SDS011;15787;49.662;10.162;2022-08-19T07:27:30;14.70;;;11.15;;
28587;SDS011;15787;49.662;10.162;2022-08-19T07:29:59;21.25;;;13.00;;
28587;SDS011;15787;49.662;10.162;2022-08-19T07:32:28;18.50;;;11.75;;
28587;SDS011;15787;49.662;10.162;2022-08-19T07:34:58;16.58;;;11.98;;
28587;SDS011;15787;49.662;10.162;2022-08-19T07:37:27;17.63;;;12.20;;
28587;SDS011;15787;49.662;10.162;2022-08-19T07:39:59;15.35;;;12.05;;
28587;SDS011;15787;49.662;10.162;2022-08-19T07:42:27;20.45;;;12.68;;
28587;SDS011;15787;49.662;10.162;2022-08-19T07:44:56;18.90;;;12.68;;
28587;SDS011;15787;49.662;10.162;2022-08-19T07:47:25;16.70;;;11.70;;
28587;SDS011;15787;49.662;10.162;2022-08-19T07:50:16;14.40;;;11.10;;
28587;SDS011;15787;49.662;10.162;2022-08-19T07:52:46;15.85;;;11.73;;
28587;SDS011;15787;49.662;10.162;2022-08-19T07:55:17;18.48;;;11.20;;
28587;SDS011;15787;49.662;10.162;2022-08-19T07:58:07;14.77;;;11.60;;
28587;SDS011;15787;49.662;10.162;2022-08-19T08:00:36;15.38;;;11.60;;
28587;SDS011;15787;49.662;10.162;2022-08-19T08:03:04;18.83;;;11.00;;
28587;SDS011;15787;49.662;10.162;2022-08-19T08:05:34;15.35;;;11.85;;
28587;SDS011;15787;49.662;10.162;2022-08-19T08:08:31;14.32;;;10.90;;
28587;SDS011;15787;49.662;10.162;2022-08-19T08:11:19;15.50;;;11.73;;
28587;SDS011;15787;49.662;10.162;2022-08-19T08:13:49;18.85;;;12.82;;
28587;SDS011;15787;49.662;10.162;2022-08-19T08:16:30;15.88;;;11.00;;
28587;SDS011;15787;49.662;10.162;2022-08-19T08:19:05;16.60;;;11.10;;
28587;SDS011;15787;49.662;10.162;2022-08-19T08:21:52;14.80;;;11.50;;
28587;SDS011;15787;49.662;10.162;2022-08-19T08:24:21;17.40;;;12.13;;
28587;SDS011;15787;49.662;10.162;2022-08-19T08:26:54;16.48;;;11.57;;
28587;SDS011;15787;49.662;10.162;2022-08-19T08:29:23;15.77;;;12.60;;
28587;SDS011;15787;49.662;10.162;2022-08-19T08:32:00;17.38;;;12.23;;
28587;SDS011;15787;49.662;10.162;2022-08-19T08:34:28;18.13;;;11.95;;
28587;SDS011;15787;49.662;10.162;2022-08-19T08:36:57;22.42;;;12.43;;
28587;SDS011;15787;49.662;10.162;2022-08-19T08:39:25;17.23;;;12.20;;
28587;SDS011;15787;49.662;10.162;2022-08-19T08:41:56;19.05;;;12.23;;
28587;SDS011;15787;49.662;10.162;2022-08-19T08:44:38;16.52;;;11.05;;
28587;SDS011;15787;49.662;10.162;2022-08-19T08:47:13;14.77;;;12.35;;
28587;SDS011;15787;49.662;10.162;2022-08-19T08:49:47;17.58;;;11.95;;
28587;SDS011;15787;49.662;10.162;2022-08-19T08:52:22;19.98;;;12.48;;
28587;SDS011;15787;49.662;10.162;2022-08-19T08:55:00;15.13;;;12.02;;
28587;SDS011;15787;49.662;10.162;2022-08-19T08:57:37;17.80;;;12.70;;
28587;SDS011;15787;49.662;10.162;2022-08-19T09:00:12;15.52;;;11.20;;
28587;SDS011;15787;49.662;10.162;2022-08-19T09:02:44;16.00;;;12.63;;
28587;SDS011;15787;49.662;10.162;2022-08-19T09:05:16;16.05;;;12.63;;
28587;SDS011;15787;49.662;10.162;2022-08-19T09:07:53;21.13;;;12.25;;
28587;SDS011;15787;49.662;10.162;2022-08-19T09:10:29;17.15;;;12.88;;
28587;SDS011;15787;49.662;10.162;2022-08-19T09:13:12;20.02;;;13.18;;
28587;SDS011;15787;49.662;10.162;2022-08-19T09:15:52;17.98;;;13.07;;
28587;SDS011;15787;49.662;10.162;2022-08-19T09:18:24;18.63;;;14.13;;
28587;SDS011;15787;49.662;10.162;2022-08-19T09:20:55;18.83;;;14.85;;
28587;SDS011;15787;49.662;10.162;2022-08-19T09:23:25;20.15;;;16.20;;
28587;SDS011;15787;49.662;10.162;2022-08-19T09:25:53;21.58;;;16.63;;
28587;SDS011;15787;49.662;10.162;2022-08-19T09:28:21;20.50;;;15.15;;
28587;SDS011;15787;49.662;10.162;2022-08-19T09:30:52;20.65;;;15.43;;
28587;SDS011;15787;49.662;10.162;2022-08-19T09:33:20;18.88;;;14.27;;
28587;SDS011;15787;49.662;10.162;2022-08-19T09:36:07;23.00;;;16.50;;
28587;SDS011;15787;49.662;10.162;2022-08-19T09:39:45;20.23;;;15.38;;
28587;SDS011;15787;49.662;10.162;2022-08-19T09:42:15;21.75;;;15.40;;
28587;SDS011;15787;49.662;10.162;2022-08-19T09:44:55;19.25;;;15.43;;
28587;SDS011;15787;49.662;10.162;2022-08-19T10:39:00;13.85;;;11.77;;
28587;SDS011;15787;49.662;10.162;2022-08-19T10:44:38;12.35;;;10.88;;
28587;SDS011;15787;49.662;10.162;2022-08-19T11:02:37;15.60;;;11.02;;
28587;SDS011;15787;49.662;10.162;2022-08-19T11:08:09;17.00;;;10.93;;
28587;SDS011;15787;49.662;10.162;2022-08-19T11:19:59;15.33;;;10.53;;
28587;SDS011;15787;49.662;10.162;2022-08-19T11:26:38;17.45;;;10.95;;
28587;SDS011;15787;49.662;10.162;2022-08-19T11:29:10;13.15;;;9.98;;
28587;SDS011;15787;49.662;10.162;2022-08-19T11:31:40;12.23;;;10.10;;
28587;SDS011;15787;49.662;10.162;2022-08-19T11:34:11;15.13;;;10.75;;
28587;SDS011;15787;49.662;10.162;2022-08-19T11:36:45;13.05;;;10.63;;
28587;SDS011;15787;49.662;10.162;2022-08-19T11:39:15;12.93;;;9.65;;
28587;SDS011;15787;49.662;10.162;2022-08-19T11:41:45;15.35;;;9.95;;
28587;SDS011;15787;49.662;10.162;2022-08-19T11:53:16;13.82;;;9.63;;
28587;SDS011;15787;49.662;10.162;2022-08-19T11:55:48;12.05;;;9.15;;
28587;SDS011;15787;49.662;10.162;2022-08-19T11:58:18;11.27;;;9.15;;
28587;SDS011;15787;49.662;10.162;2022-08-19T12:00:46;11.77;;;9.02;;
28587;SDS011;15787;49.662;10.162;2022-08-19T12:03:15;11.43;;;9.02;;
28587;SDS011;15787;49.662;10.162;2022-08-19T12:06:10;11.38;;;8.70;;
28587;SDS011;15787;49.662;10.162;2022-08-19T12:08:40;12.55;;;9.48;;
28587;SDS011;15787;49.662;10.162;2022-08-19T12:11:08;12.63;;;9.25;;
28587;SDS011;15787;49.662;10.162;2022-08-19T12:13:37;13.82;;;9.50;;
28587;SDS011;15787;49.662;10.162;2022-08-19T12:16:07;11.13;;;9.18;;
28587;SDS011;15787;49.662;10.162;2022-08-19T12:27:28;13.68;;;10.18;;
28587;SDS011;15787;49.662;10.162;2022-08-19T12:30:06;10.65;;;9.35;;
28587;SDS011;15787;49.662;10.162;2022-08-19T12:32:36;14.68;;;10.35;;
28587;SDS011;15787;49.662;10.162;2022-08-19T12:35:05;13.98;;;10.43;;
28587;SDS011;15787;49.662;10.162;2022-08-19T12:37:35;14.02;;;10.32;;
28587;SDS011;15787;49.662;10.162;2022-08-19T12:40:04;13.55;;;10.07;;
28587;SDS011;15787;49.662;10.162;2022-08-19T12:42:34;13.70;;;9.90;;
28587;SDS011;15787;49.662;10.162;2022-08-19T12:45:02;14.80;;;10.63;;
28587;SDS011;15787;49.662;10.162;2022-08-19T12:47:34;13.25;;;9.65;;
28587;SDS011;15787;49.662;10.162;2022-08-19T12:50:15;14.77;;;11.07;;
28587;SDS011;15787;49.662;10.162;2022-08-19T12:52:43;13.85;;;11.75;;
28587;SDS011;15787;49.662;10.162;2022-08-19T12:55:11;14.10;;;11.38;;
28587;SDS011;15787;49.662;10.162;2022-08-19T12:57:40;15.80;;;11.95;;
28587;SDS011;15787;49.662;10.162;2022-08-19T13:00:10;17.27;;;12.23;;
28587;SDS011;15787;49.662;10.162;2022-08-19T13:02:41;16.80;;;11.73;;
28587;SDS011;15787;49.662;10.162;2022-08-19T13:05:12;15.63;;;9.68;;
28587;SDS011;15787;49.662;10.162;2022-08-19T13:07:43;11.70;;;8.55;;
28587;SDS011;15787;49.662;10.162;2022-08-19T13:10:12;10.93;;;8.48;;
28587;SDS011;15787;49.662;10.162;2022-08-19T13:16:17;14.52;;;9.45;;
28587;SDS011;15787;49.662;10.162;2022-08-19T13:18:46;15.10;;;8.82;;
28587;SDS011;15787;49.662;10.162;2022-08-19T13:21:15;13.57;;;8.50;;
28587;SDS011;15787;49.662;10.162;2022-08-19T13:23:48;15.23;;;9.18;;
28587;SDS011;15787;49.662;10.162;2022-08-19T13:26:18;16.17;;;10.45;;
28587;SDS011;15787;49.662;10.162;2022-08-19T13:28:48;16.52;;;10.52;;
28587;SDS011;15787;49.662;10.162;2022-08-19T13:31:35;18.33;;;10.88;;
28587;SDS011;15787;49.662;10.162;2022-08-19T13:34:27;20.48;;;12.73;;
28587;SDS011;15787;49.662;10.162;2022-08-19T13:36:58;20.13;;;12.73;;
28587;SDS011;15787;49.662;10.162;2022-08-19T13:39:29;25.08;;;15.20;;
28587;SDS011;15787;49.662;10.162;2022-08-19T13:41:58;18.23;;;12.90;;
28587;SDS011;15787;49.662;10.162;2022-08-19T13:44:28;24.77;;;15.30;;
28587;SDS011;15787;49.662;10.162;2022-08-19T13:46:59;23.33;;;15.83;;
28587;SDS011;15787;49.662;10.162;2022-08-19T13:49:32;23.13;;;15.38;;
28587;SDS011;15787;49.662;10.162;2022-08-19T13:52:02;21.25;;;15.13;;
28587;SDS011;15787;49.662;10.162;2022-08-19T13:54:31;29.77;;;17.48;;
28587;SDS011;15787;49.662;10.162;2022-08-19T13:56:59;39.90;;;16.05;;
28587;SDS011;15787;49.662;10.162;2022-08-19T13:59:29;21.48;;;15.70;;
28587;SDS011;15787;49.662;10.162;2022-08-19T14:01:57;21.38;;;14.77;;
28587;SDS011;15787;49.662;10.162;2022-08-19T14:04:26;22.42;;;14.60;;
28587;SDS011;15787;49.662;10.162;2022-08-19T14:06:54;22.25;;;14.10;;
28587;SDS011;15787;49.662;10.162;2022-08-19T14:09:22;24.38;;;13.85;;
28587;SDS011;15787;49.662;10.162;2022-08-19T14:11:50;21.33;;;14.98;;
28587;SDS011;15787;49.662;10.162;2022-08-19T14:14:18;21.17;;;14.07;;
28587;SDS011;15787;49.662;10.162;2022-08-19T14:16:47;20.50;;;13.63;;
28587;SDS011;15787;49.662;10.162;2022-08-19T14:19:15;19.40;;;13.90;;
28587;SDS011;15787;49.662;10.162;2022-08-19T14:21:43;19.77;;;13.23;;
28587;SDS011;15787;49.662;10.162;2022-08-19T14:24:11;19.02;;;13.80;;
28587;SDS011;15787;49.662;10.162;2022-08-19T14:26:39;18.65;;;13.38;;
28587;SDS011;15787;49.662;10.162;2022-08-19T14:29:08;19.85;;;13.27;;
28587;SDS011;15787;49.662;10.162;2022-08-19T14:31:36;18.38;;;12.95;;
28587;SDS011;15787;49.662;10.162;2022-08-19T14:36:36;20.70;;;13.80;;
28587;SDS011;15787;49.662;10.162;2022-08-19T14:39:04;19.45;;;14.43;;
28587;SDS011;15787;49.662;10.162;2022-08-19T14:41:32;17.23;;;12.93;;
28587;SDS011;15787;49.662;10.162;2022-08-19T14:44:00;19.30;;;13.27;;
28587;SDS011;15787;49.662;10.162;2022-08-19T14:46:28;20.42;;;12.68;;
28587;SDS011;15787;49.662;10.162;2022-08-19T14:48:57;20.38;;;12.65;;
28587;SDS011;15787;49.662;10.162;2022-08-19T14:51:27;14.65;;;11.32;;
28587;SDS011;15787;49.662;10.162;2022-08-19T14:53:55;15.27;;;11.27;;
28587;SDS011;15787;49.662;10.162;2022-08-19T14:56:24;19.48;;;13.23;;
28587;SDS011;15787;49.662;10.162;2022-08-19T15:01:23;20.13;;;11.98;;
28587;SDS011;15787;49.662;10.162;2022-08-19T15:03:52;16.58;;;11.90;;
28587;SDS011;15787;49.662;10.162;2022-08-19T15:06:31;15.77;;;12.55;;
28587;SDS011;15787;49.662;10.162;2022-08-19T15:08:59;15.17;;;11.57;;
28587;SDS011;15787;49.662;10.162;2022-08-19T15:11:30;15.30;;;11.25;;
28587;SDS011;15787;49.662;10.162;2022-08-19T15:13:59;13.98;;;10.75;;
28587;SDS011;15787;49.662;10.162;2022-08-19T15:16:27;14.55;;;10.43;;
28587;SDS011;15787;49.662;10.162;2022-08-19T15:18:56;12.85;;;10.40;;
28587;SDS011;15787;49.662;10.162;2022-08-19T15:21:26;16.25;;;11.38;;
28587;SDS011;15787;49.662;10.162;2022-08-19T15:23:57;14.10;;;10.50;;
28587;SDS011;15787;49.662;10.162;2022-08-19T15:26:25;14.10;;;10.88;;
28587;SDS011;15787;49.662;10.162;2022-08-19T15:28:54;15.88;;;10.73;;
28587;SDS011;15787;49.662;10.162;2022-08-19T15:31:22;14.18;;;11.10;;
28587;SDS011;15787;49.662;10.162;2022-08-19T15:33:54;15.43;;;10.85;;
28587;SDS011;15787;49.662;10.162;2022-08-19T15:36:24;14.88;;;10.23;;
28587;SDS011;15787;49.662;10.162;2022-08-19T15:38:52;13.82;;;11.73;;
28587;SDS011;15787;49.662;10.162;2022-08-19T15:41:23;16.70;;;11.13;;
28587;SDS011;15787;49.662;10.162;2022-08-19T15:43:54;12.93;;;10.52;;
28587;SDS011;15787;49.662;10.162;2022-08-19T15:46:24;13.23;;;10.45;;
28587;SDS011;15787;49.662;10.162;2022-08-19T15:48:56;14.60;;;10.90;;
28587;SDS011;15787;49.662;10.162;2022-08-19T15:51:26;13.53;;;10.43;;
28587;SDS011;15787;49.662;10.162;2022-08-19T15:53:55;12.88;;;10.65;;
28587;SDS011;15787;49.662;10.162;2022-08-19T15:56:25;13.70;;;10.85;;
28587;SDS011;15787;49.662;10.162;2022-08-19T15:59:23;14.40;;;11.27;;
28587;SDS011;15787;49.662;10.162;2022-08-19T16:02:13;20.52;;;12.25;;
28587;SDS011;15787;49.662;10.162;2022-08-19T16:05:03;14.30;;;10.57;;
28587;SDS011;15787;49.662;10.162;2022-08-19T16:07:52;13.20;;;9.98;;
28587;SDS011;15787;49.662;10.162;2022-08-19T16:10:20;11.05;;;8.40;;
28587;SDS011;15787;49.662;10.162;2022-08-19T16:12:55;10.23;;;7.50;;
28587;SDS011;15787;49.662;10.162;2022-08-19T16:15:25;9.73;;;7.93;;
28587;SDS011;15787;49.662;10.162;2022-08-19T16:17:54;12.40;;;7.47;;
28587;SDS011;15787;49.662;10.162;2022-08-19T16:20:23;11.80;;;8.40;;
28587;SDS011;15787;49.662;10.162;2022-08-19T16:22:53;10.68;;;9.07;;
28587;SDS011;15787;49.662;10.162;2022-08-19T16:25:23;13.03;;;9.63;;
28587;SDS011;15787;49.662;10.162;2022-08-19T16:27:56;13.43;;;8.75;;
28587;SDS011;15787;49.662;10.162;2022-08-19T16:30:32;11.35;;;9.40;;
28587;SDS011;15787;49.662;10.162;2022-08-19T16:33:00;14.15;;;9.63;;
28587;SDS011;15787;49.662;10.162;2022-08-19T16:35:28;11.20;;;8.18;;
28587;SDS011;15787;49.662;10.162;2022-08-19T16:37:56;9.73;;;7.75;;